createdAt,value
2019-02-10T00:00:32.541Z,100171.42
2019-02-10T00:02:58.524Z,100175.53
2019-02-10T00:05:24.584Z,100169.28
2019-02-10T00:07:50.613Z,100168.47
2019-02-10T00:10:16.713Z,100159.75
2019-02-10T00:12:42.725Z,100152.35
2019-02-10T00:15:08.783Z,100152.81
2019-02-10T00:17:34.767Z,100143.77
2019-02-10T00:20:00.771Z,100144.59
2019-02-10T00:22:26.752Z,100135.39
2019-02-10T00:24:52.760Z,100118.42
2019-02-10T00:27:18.757Z,100111.84
2019-02-10T00:29:44.725Z,100114.02
2019-02-10T00:32:10.712Z,100106.26
2019-02-10T00:34:36.710Z,100107.08
2019-02-10T00:37:02.696Z,100099.55
2019-02-10T00:39:28.716Z,100086.03
2019-02-10T00:41:54.787Z,100082.25
2019-02-10T00:44:20.800Z,100078.31
2019-02-10T00:46:46.782Z,100080.58
2019-02-10T00:49:12.759Z,100076.64
2019-02-10T00:51:38.774Z,100062.80
2019-02-10T00:54:04.755Z,100053.59
2019-02-10T00:56:30.734Z,100051.32
2019-02-10T00:58:56.747Z,100048.83
2019-02-10T01:01:22.719Z,100044.88
2019-02-10T01:03:48.751Z,100033.05
2019-02-10T01:06:14.758Z,100032.55
2019-02-10T01:08:40.771Z,100016.94
2019-02-10T01:11:06.835Z,100017.41
2019-02-10T01:13:32.963Z,100004.25
2019-02-10T01:15:58.963Z,99993.41
2019-02-10T01:18:24.955Z,99998.17
2019-02-10T01:20:50.939Z,99987.33
2019-02-10T01:23:16.951Z,99983.88
2019-02-10T01:25:42.934Z,99977.30
2019-02-10T01:28:08.942Z,99966.42
2019-02-10T01:30:34.923Z,99955.90
2019-02-10T01:33:00.929Z,99945.05
2019-02-10T01:35:26.922Z,99933.22
2019-02-10T01:37:52.983Z,99934.53
2019-02-10T01:40:18.968Z,99910.51
2019-02-10T01:42:44.940Z,99917.94
2019-02-10T01:45:10.951Z,99913.14
2019-02-10T01:47:36.928Z,99906.23
2019-02-10T01:50:02.924Z,99897.03
2019-02-10T01:52:28.923Z,99897.03
2019-02-10T01:54:54.946Z,99881.75
2019-02-10T01:57:20.929Z,99866.47
2019-02-10T01:59:46.905Z,99860.70
2019-02-10T02:02:12.912Z,99847.20
2019-02-10T02:04:38.874Z,99837.68
2019-02-10T02:07:04.885Z,99824.03
2019-02-10T02:09:30.862Z,99816.95
2019-02-10T02:11:56.854Z,99813.19
2019-02-10T02:14:22.823Z,99803.13
2019-02-10T02:16:48.801Z,99796.09
2019-02-10T02:19:14.784Z,99796.09
2019-02-10T02:21:40.759Z,99792.15
2019-02-10T02:24:06.762Z,99777.33
2019-02-10T02:26:32.745Z,99774.70
2019-02-10T02:28:58.723Z,99772.89
2019-02-10T02:31:24.695Z,99761.23
2019-02-10T02:33:50.705Z,99762.05
2019-02-10T02:36:16.710Z,99755.48
2019-02-10T02:38:42.705Z,99750.71
2019-02-10T02:41:08.737Z,99744.64
2019-02-10T02:43:34.727Z,99739.38
2019-02-10T02:46:00.724Z,99729.00
2019-02-10T02:48:26.734Z,99725.38
2019-02-10T02:50:52.724Z,99700.39
2019-02-10T02:53:18.741Z,99692.04
2019-02-10T02:55:44.725Z,99681.67
2019-02-10T02:58:10.735Z,99674.78
2019-02-10T03:00:36.709Z,99668.20
2019-02-10T03:03:02.713Z,99662.94
2019-02-10T03:05:28.715Z,99652.89
2019-02-10T03:07:54.722Z,99645.50
2019-02-10T03:10:20.813Z,99636.80
2019-02-10T03:12:46.805Z,99643.05
2019-02-10T03:15:12.888Z,99637.29
2019-02-10T03:17:38.878Z,99608.86
2019-02-10T03:20:04.889Z,99614.13
2019-02-10T03:22:30.955Z,99615.91
2019-02-10T03:24:56.939Z,99605.89
2019-02-10T03:27:22.942Z,99583.39
2019-02-10T03:29:48.934Z,99577.31
2019-02-10T03:32:14.976Z,99563.00
2019-02-10T03:34:40.969Z,99560.38
2019-02-10T03:37:06.944Z,99552.98
2019-02-10T03:39:32.976Z,99548.54
2019-02-10T03:41:58.998Z,99539.84
2019-02-10T03:44:25.045Z,99531.09
2019-02-10T03:46:51.020Z,99519.77
2019-02-10T03:49:17.086Z,99513.37
2019-02-10T03:51:43.083Z,99503.83
2019-02-10T03:54:09.151Z,99501.19
2019-02-10T03:56:35.120Z,99489.86
2019-02-10T03:59:01.109Z,99473.59
2019-02-10T04:01:27.102Z,99469.14
2019-02-10T04:03:53.069Z,99454.37
2019-02-10T04:06:19.060Z,99456.84
2019-02-10T04:08:45.033Z,99441.07
2019-02-10T04:11:11.019Z,99433.19
2019-02-10T04:13:36.990Z,99425.45
2019-02-10T04:16:02.984Z,99417.88
2019-02-10T04:18:28.992Z,99403.92
2019-02-10T04:20:54.959Z,99404.73
2019-02-10T04:23:21.003Z,99391.77
2019-02-10T04:25:47.045Z,99383.54
2019-02-10T04:28:13.053Z,99372.39
2019-02-10T04:30:39.032Z,99363.19
2019-02-10T04:33:05.116Z,99353.64
2019-02-10T04:35:31.083Z,99341.31
2019-02-10T04:37:57.069Z,99337.87
2019-02-10T04:40:23.050Z,99328.67
2019-02-10T04:42:49.035Z,99314.21
2019-02-10T04:45:15.029Z,99305.52
2019-02-10T04:47:41.004Z,99292.87
2019-02-10T04:50:07.006Z,99287.92
2019-02-10T04:52:32.988Z,99273.47
2019-02-10T04:54:59.057Z,99268.20
2019-02-10T04:57:25.043Z,99260.32
2019-02-10T04:59:51.013Z,99243.73
2019-02-10T05:02:17.018Z,99233.06
2019-02-10T05:04:43.057Z,99226.14
2019-02-10T05:07:09.072Z,99230.55
2019-02-10T05:09:35.037Z,99211.65
2019-02-10T05:12:01.048Z,99206.58
2019-02-10T05:14:27.127Z,99199.50
2019-02-10T05:16:53.127Z,99193.58
2019-02-10T05:19:19.133Z,99172.86
2019-02-10T05:21:45.112Z,99171.55
2019-02-10T05:24:11.142Z,99168.25
2019-02-10T05:26:37.202Z,99150.50
2019-02-10T05:29:03.273Z,99144.23
2019-02-10T05:31:29.283Z,99130.59
2019-02-10T05:33:55.254Z,99117.78
2019-02-10T05:36:21.230Z,99112.33
2019-02-10T05:38:47.201Z,99110.34
2019-02-10T05:41:13.180Z,99100.64
2019-02-10T05:43:39.162Z,99090.97
2019-02-10T05:46:05.257Z,99081.91
2019-02-10T05:48:31.232Z,99081.72
2019-02-10T05:50:57.220Z,99074.17
2019-02-10T05:53:23.204Z,99069.38
2019-02-10T05:55:49.205Z,99060.52
2019-02-10T05:58:15.217Z,99051.14
2019-02-10T06:00:41.207Z,99050.14
2019-02-10T06:03:07.211Z,99041.24
2019-02-10T06:05:33.187Z,99041.08
2019-02-10T06:07:59.166Z,99020.84
2019-02-10T06:10:25.140Z,99019.88
2019-02-10T06:12:51.118Z,99019.88
2019-02-10T06:15:17.162Z,99009.16
2019-02-10T06:17:43.188Z,99006.86
2019-02-10T06:20:09.164Z,99001.41
2019-02-10T06:22:35.146Z,98993.01
2019-02-10T06:25:01.193Z,98977.06
2019-02-10T06:27:27.183Z,98968.67
2019-02-10T06:29:53.188Z,98970.63
2019-02-10T06:32:19.212Z,98965.70
2019-02-10T06:34:45.201Z,98955.48
2019-02-10T06:37:11.198Z,98942.64
2019-02-10T06:39:37.191Z,98948.23
2019-02-10T06:42:03.195Z,98945.10
2019-02-10T06:44:29.193Z,98936.20
2019-02-10T06:46:55.212Z,98926.52
2019-02-10T06:49:21.301Z,98922.06
2019-02-10T06:51:47.277Z,98917.31
2019-02-10T06:54:13.273Z,98904.63
2019-02-10T06:56:39.237Z,98896.06
2019-02-10T06:59:05.219Z,98896.27
2019-02-10T07:01:31.208Z,98885.23
2019-02-10T07:03:57.189Z,98885.54
2019-02-10T07:06:23.176Z,98876.33
2019-02-10T07:08:49.176Z,98865.34
2019-02-10T07:11:15.144Z,98864.33
2019-02-10T07:13:41.130Z,98859.06
2019-02-10T07:16:07.122Z,98856.44
2019-02-10T07:18:33.353Z,98847.05
2019-02-10T07:20:59.385Z,98844.42
2019-02-10T07:23:25.383Z,98852.12
2019-02-10T07:25:51.351Z,98834.20
2019-02-10T07:28:17.366Z,98829.58
2019-02-10T07:30:43.350Z,98821.05
2019-02-10T07:33:09.350Z,98825.00
2019-02-10T07:35:35.331Z,98823.98
2019-02-10T07:38:01.338Z,98810.53
2019-02-10T07:40:27.315Z,98810.83
2019-02-10T07:42:53.301Z,98812.14
2019-02-10T07:45:19.288Z,98796.36
2019-02-10T07:47:45.279Z,98795.05
2019-02-10T07:50:11.319Z,98791.94
2019-02-10T07:52:37.307Z,98795.38
2019-02-10T07:55:03.326Z,98786.17
2019-02-10T07:57:29.330Z,98787.99
2019-02-10T07:59:55.288Z,98794.88
2019-02-10T08:02:21.282Z,98790.42
2019-02-10T08:04:47.272Z,98790.42
2019-02-10T08:07:13.253Z,98787.28
2019-02-10T08:09:39.327Z,98778.08
2019-02-10T08:12:05.342Z,98782.86
2019-02-10T08:14:31.318Z,98768.69
2019-02-10T08:16:57.324Z,98778.41
2019-02-10T08:19:23.377Z,98764.75
2019-02-10T08:21:49.360Z,98756.85
2019-02-10T08:24:15.418Z,98758.17
2019-02-10T08:26:41.413Z,98745.82
2019-02-10T08:29:07.416Z,98745.31
2019-02-10T08:31:33.489Z,98741.88
2019-02-10T08:33:59.481Z,98730.03
2019-02-10T08:36:25.458Z,98720.66
2019-02-10T08:38:54.482Z,98732.16
2019-02-10T08:41:19.234Z,98725.11
2019-02-10T08:43:45.212Z,98714.08
2019-02-10T08:46:11.216Z,98719.84
2019-02-10T08:48:37.225Z,98714.38
2019-02-10T08:51:03.204Z,98716.20
2019-02-10T08:53:29.174Z,98719.64
2019-02-10T08:55:55.166Z,98709.62
2019-02-10T08:58:21.178Z,98704.87
2019-02-10T09:00:47.159Z,98693.33
2019-02-10T09:03:19.351Z,98687.25
2019-02-10T09:05:41.934Z,98695.78
2019-02-10T09:08:08.014Z,98684.25
2019-02-10T09:10:33.999Z,98670.28
2019-02-10T09:12:59.979Z,98674.23
2019-02-10T09:15:26.000Z,98676.86
2019-02-10T09:17:51.979Z,98675.87
2019-02-10T09:20:17.967Z,98678.98
2019-02-10T09:22:43.956Z,98673.72
2019-02-10T09:25:10.042Z,98668.45
2019-02-10T09:27:36.183Z,98657.13
2019-02-10T09:30:02.234Z,98661.88
2019-02-10T09:32:28.367Z,98658.44
2019-02-10T09:34:54.464Z,98653.00
2019-02-10T09:37:20.518Z,98650.88
2019-02-10T09:39:46.612Z,98652.67
2019-02-10T09:42:12.643Z,98649.56
2019-02-10T09:44:38.676Z,98640.66
2019-02-10T09:47:04.759Z,98638.83
2019-02-10T09:49:30.772Z,98638.02
2019-02-10T09:51:56.824Z,98650.67
2019-02-10T09:54:22.812Z,98637.01
2019-02-10T09:56:48.832Z,98634.88
2019-02-10T09:59:14.802Z,98630.76
2019-02-10T10:01:40.819Z,98631.27
2019-02-10T10:04:06.840Z,98628.63
2019-02-10T10:06:32.873Z,98630.25
2019-02-10T10:08:58.871Z,98620.23
2019-02-10T10:11:24.887Z,98618.11
2019-02-10T10:13:50.878Z,98615.78
2019-02-10T10:16:16.916Z,98614.97
2019-02-10T10:18:42.950Z,98609.89
2019-02-10T10:21:08.965Z,98613.39
2019-02-10T10:23:34.987Z,98611.95
2019-02-10T10:26:01.033Z,98603.76
2019-02-10T10:28:27.074Z,98607.50
2019-02-10T10:30:53.049Z,98593.71
2019-02-10T10:33:19.068Z,98594.85
2019-02-10T10:35:45.093Z,98601.13
2019-02-10T10:38:11.210Z,98601.25
2019-02-10T10:40:37.233Z,98600.23
2019-02-10T10:43:03.239Z,98596.80
2019-02-10T10:45:29.301Z,98613.39
2019-02-10T10:47:55.308Z,98604.51
2019-02-10T10:50:21.323Z,98607.32
2019-02-10T10:52:47.322Z,98618.66
2019-02-10T10:55:13.339Z,98599.72
2019-02-10T10:57:39.410Z,98601.88
2019-02-10T11:00:05.471Z,98604.18
2019-02-10T11:02:31.631Z,98599.94
2019-02-10T11:04:57.606Z,98599.72
2019-02-10T11:07:24.714Z,98604.98
2019-02-10T11:09:50.730Z,98602.36
2019-02-10T11:12:16.775Z,98603.38
2019-02-10T11:14:42.796Z,98611.56
2019-02-10T11:17:10.469Z,98613.72
2019-02-10T11:19:36.794Z,98614.70
2019-02-10T11:22:02.820Z,98600.23
2019-02-10T11:24:29.032Z,98599.72
2019-02-10T11:26:55.082Z,98596.28
2019-02-10T11:29:21.104Z,98595.48
2019-02-10T11:31:47.156Z,98596.80
2019-02-10T11:34:13.271Z,98596.80
2019-02-10T11:36:39.277Z,98592.84
2019-02-10T11:39:05.255Z,98596.28
2019-02-10T11:41:31.250Z,98592.34
2019-02-10T11:43:57.264Z,98589.20
2019-02-10T11:46:23.365Z,98594.97
2019-02-10T11:48:49.447Z,98589.20
2019-02-10T11:51:15.471Z,98587.59
2019-02-10T11:53:41.467Z,98588.39
2019-02-10T11:56:07.486Z,98583.64
2019-02-10T11:58:33.494Z,98582.32
2019-02-10T12:00:59.524Z,98581.00
2019-02-10T12:03:25.513Z,98581.52
2019-02-10T12:05:51.535Z,98584.14
2019-02-10T12:08:17.545Z,98591.53
2019-02-10T12:10:43.618Z,98588.90
2019-02-10T12:13:09.627Z,98587.59
2019-02-10T12:15:35.671Z,98588.39
2019-02-10T12:18:01.678Z,98580.50
2019-02-10T12:20:27.704Z,98591.36
2019-02-10T12:22:53.869Z,98590.84
2019-02-10T12:25:19.848Z,98586.89
2019-02-10T12:27:45.862Z,98588.22
2019-02-10T12:30:14.640Z,98593.48
2019-02-10T12:32:40.761Z,98594.46
2019-02-10T12:35:06.766Z,98589.32
2019-02-10T12:37:32.864Z,98596.41
2019-02-10T12:39:59.972Z,98600.69
2019-02-10T12:42:26.142Z,98600.69
2019-02-10T12:44:52.107Z,98603.31
2019-02-10T12:47:18.131Z,98597.72
2019-02-10T12:49:44.215Z,98599.04
2019-02-10T12:52:10.205Z,98595.09
2019-02-10T12:54:36.313Z,98584.38
2019-02-10T12:57:02.315Z,98604.63
2019-02-10T12:59:28.300Z,98603.80
2019-02-10T13:01:54.308Z,98606.94
2019-02-10T13:04:20.290Z,98611.21
2019-02-10T13:06:46.311Z,98609.89
2019-02-10T13:09:12.313Z,98612.53
2019-02-10T13:11:38.293Z,98611.69
2019-02-10T13:14:04.302Z,98614.32
2019-02-10T13:16:30.293Z,98602.00
2019-02-10T13:18:56.398Z,98609.56
2019-02-10T13:21:22.453Z,98604.30
2019-02-10T13:23:48.489Z,98609.56
2019-02-10T13:26:14.674Z,98599.25
2019-02-10T13:28:40.659Z,98596.11
2019-02-10T13:31:06.782Z,98595.78
2019-02-10T13:33:32.887Z,98596.11
2019-02-10T13:35:59.024Z,98596.28
2019-02-10T13:38:26.119Z,98601.05
2019-02-10T13:40:52.163Z,98605.50
2019-02-10T13:43:18.208Z,98614.20
2019-02-10T13:45:44.215Z,98601.05
2019-02-10T13:48:10.204Z,98600.56
2019-02-10T13:50:36.233Z,98602.86
2019-02-10T13:53:02.247Z,98603.20
2019-02-10T13:55:28.319Z,98602.69
2019-02-10T13:57:55.364Z,98600.05
2019-02-10T14:00:21.361Z,98604.00
2019-02-10T14:02:47.383Z,98614.02
2019-02-10T14:05:13.361Z,98606.63
2019-02-10T14:07:39.354Z,98604.81
2019-02-10T14:10:05.367Z,98604.51
2019-02-10T14:12:31.365Z,98618.48
2019-02-10T14:14:57.491Z,98610.58
2019-02-10T14:17:23.668Z,98617.97
2019-02-10T14:19:49.690Z,98621.11
2019-02-10T14:22:15.717Z,98622.09
2019-02-10T14:24:41.736Z,98616.83
2019-02-10T14:27:07.716Z,98630.32
2019-02-10T14:29:33.804Z,98631.63
2019-02-10T14:31:59.820Z,98644.97
2019-02-10T14:34:25.831Z,98646.92
2019-02-10T14:36:51.816Z,98645.70
2019-02-10T14:39:17.804Z,98623.95
2019-02-10T14:41:43.831Z,98639.80
2019-02-10T14:44:09.860Z,98639.14
2019-02-10T14:46:35.894Z,98630.44
2019-02-10T14:49:01.893Z,98633.08
2019-02-10T14:51:27.959Z,98628.32
2019-02-10T14:53:53.952Z,98613.84
2019-02-10T14:56:20.002Z,98631.25
2019-02-10T14:58:46.075Z,98624.55
2019-02-10T15:01:12.055Z,98633.76
2019-02-10T15:03:38.072Z,98624.55
2019-02-10T15:06:04.140Z,98633.94
2019-02-10T15:08:30.128Z,98633.12
2019-02-10T15:10:56.159Z,98641.02
2019-02-10T15:13:22.177Z,98653.38
2019-02-10T15:15:49.659Z,98660.45
2019-02-10T15:18:15.786Z,98665.04
2019-02-10T15:20:41.801Z,98665.72
2019-02-10T15:23:07.902Z,98663.09
2019-02-10T15:25:33.906Z,98668.53
2019-02-10T15:27:59.937Z,98674.30
2019-02-10T15:30:25.970Z,98681.39
2019-02-10T15:32:51.958Z,98691.91
2019-02-10T15:35:17.981Z,98693.53
2019-02-10T15:37:44.879Z,98682.70
2019-02-10T15:40:10.918Z,98695.86
2019-02-10T15:42:38.673Z,98693.23
2019-02-10T15:45:04.686Z,98687.45
2019-02-10T15:47:30.681Z,98692.72
2019-02-10T15:49:56.733Z,98695.35
2019-02-10T15:52:22.804Z,98695.66
2019-02-10T15:54:48.880Z,98705.87
2019-02-10T15:57:14.881Z,98703.25
2019-02-10T15:59:40.945Z,98702.23
2019-02-10T16:02:06.959Z,98705.20
2019-02-10T16:04:33.053Z,98706.98
2019-02-10T16:06:59.113Z,98715.22
2019-02-10T16:09:25.093Z,98724.09
2019-02-10T16:11:51.218Z,98722.48
2019-02-10T16:14:17.331Z,98729.56
2019-02-10T16:16:43.404Z,98722.17
2019-02-10T16:19:09.400Z,98726.93
2019-02-10T16:21:35.482Z,98738.44
2019-02-10T16:24:01.891Z,98740.59
2019-02-10T16:26:27.982Z,98739.28
2019-02-10T16:28:53.995Z,98736.83
2019-02-10T16:31:20.499Z,98742.09
2019-02-10T16:33:46.599Z,98749.17
2019-02-10T16:36:12.611Z,98750.48
2019-02-10T16:38:38.603Z,98747.86
2019-02-10T16:41:06.365Z,98755.24
2019-02-10T16:43:32.956Z,98755.92
2019-02-10T16:45:59.049Z,98769.89
2019-02-10T16:48:25.101Z,98769.08
2019-02-10T16:50:52.184Z,98773.53
2019-02-10T16:53:18.216Z,98786.86
2019-02-10T16:55:44.302Z,98782.44
2019-02-10T16:58:10.338Z,98783.76
2019-02-10T17:00:36.501Z,98797.26
2019-02-10T17:03:02.552Z,98800.86
2019-02-10T17:05:28.547Z,98802.78
2019-02-10T17:07:54.759Z,98816.78
2019-02-10T17:10:20.768Z,98811.31
2019-02-10T17:12:46.767Z,98807.37
2019-02-10T17:15:12.787Z,98823.80
2019-02-10T17:17:38.813Z,98826.13
2019-02-10T17:20:04.858Z,98829.23
2019-02-10T17:22:30.913Z,98832.88
2019-02-10T17:24:56.923Z,98831.25
2019-02-10T17:27:22.930Z,98845.90
2019-02-10T17:29:48.916Z,98840.63
2019-02-10T17:32:14.945Z,98847.52
2019-02-10T17:34:40.995Z,98852.17
2019-02-10T17:37:07.002Z,98859.05
2019-02-10T17:39:32.996Z,98862.19
2019-02-10T17:41:58.996Z,98860.06
2019-02-10T17:44:25.006Z,98870.09
2019-02-10T17:46:51.049Z,98874.54
2019-02-10T17:49:17.044Z,98881.12
2019-02-10T17:51:43.063Z,98887.06
2019-02-10T17:54:09.076Z,98894.45
2019-02-10T17:56:35.080Z,98903.35
2019-02-10T17:59:01.087Z,98903.66
2019-02-10T18:01:27.083Z,98911.72
2019-02-10T18:03:53.077Z,98904.67
2019-02-10T18:06:19.071Z,98909.92
2019-02-10T18:08:45.080Z,98915.80
2019-02-10T18:11:11.054Z,98922.72
2019-02-10T18:13:37.075Z,98938.17
2019-02-10T18:16:03.139Z,98951.33
2019-02-10T18:18:29.177Z,98954.16
2019-02-10T18:20:55.180Z,98962.36
2019-02-10T18:23:21.215Z,98959.08
2019-02-10T18:25:47.206Z,98970.25
2019-02-10T18:28:13.217Z,98970.25
2019-02-10T18:30:39.207Z,98976.02
2019-02-10T18:33:05.271Z,98982.09
2019-02-10T18:35:31.305Z,98989.84
2019-02-10T18:37:57.334Z,98991.81
2019-02-10T18:40:23.321Z,99003.81
2019-02-10T18:42:49.349Z,98995.45
2019-02-10T18:45:15.356Z,98995.11
2019-02-10T18:47:41.358Z,99012.86
2019-02-10T18:50:07.355Z,99019.44
2019-02-10T18:52:33.420Z,99019.75
2019-02-10T18:54:59.432Z,99026.32
2019-02-10T18:57:25.435Z,99026.02
2019-02-10T18:59:51.446Z,99041.30
2019-02-10T19:02:17.434Z,99043.93
2019-02-10T19:04:43.476Z,99052.33
2019-02-10T19:07:09.516Z,99058.41
2019-02-10T19:09:35.547Z,99048.39
2019-02-10T19:12:01.531Z,99055.27
2019-02-10T19:14:27.591Z,99068.27
2019-02-10T19:16:53.703Z,99068.42
2019-02-10T19:19:19.737Z,99078.14
2019-02-10T19:21:45.780Z,99090.32
2019-02-10T19:24:11.757Z,99092.61
2019-02-10T19:26:38.067Z,99108.41
2019-02-10T19:29:04.103Z,99122.21
2019-02-10T19:31:30.206Z,99116.64
2019-02-10T19:33:56.309Z,99130.10
2019-02-10T19:36:22.374Z,99135.06
2019-02-10T19:38:48.494Z,99140.80
2019-02-10T19:41:14.657Z,99142.11
2019-02-10T19:43:40.698Z,99154.45
2019-02-10T19:46:06.714Z,99169.74
2019-02-10T19:48:32.733Z,99173.22
2019-02-10T19:50:58.767Z,99178.29
2019-02-10T19:53:25.048Z,99180.61
2019-02-10T19:55:51.108Z,99190.80
2019-02-10T19:58:17.213Z,99199.20
2019-02-10T20:00:43.361Z,99196.56
2019-02-10T20:03:09.442Z,99205.12
2019-02-10T20:05:35.427Z,99219.59
2019-02-10T20:08:01.499Z,99215.65
2019-02-10T20:10:27.489Z,99228.80
2019-02-10T20:12:53.549Z,99236.70
2019-02-10T20:15:19.603Z,99243.28
2019-02-10T20:17:45.629Z,99253.80
2019-02-10T20:20:11.744Z,99257.44
2019-02-10T20:22:37.855Z,99271.58
2019-02-10T20:25:03.822Z,99280.31
2019-02-10T20:27:29.843Z,99287.70
2019-02-10T20:29:55.880Z,99292.63
2019-02-10T20:32:21.884Z,99298.23
2019-02-10T20:34:47.911Z,99309.07
2019-02-10T20:37:13.935Z,99304.47
2019-02-10T20:39:39.909Z,99321.41
2019-02-10T20:42:12.237Z,99324.05
2019-02-10T20:44:34.676Z,99325.70
2019-02-10T20:47:00.731Z,99338.86
2019-02-10T20:49:26.734Z,99333.76
2019-02-10T20:51:52.721Z,99349.86
2019-02-10T20:54:19.723Z,99357.44
2019-02-10T20:56:45.736Z,99362.55
2019-02-10T20:59:11.731Z,99380.62
2019-02-10T21:01:37.731Z,99377.18
2019-02-10T21:04:04.866Z,99385.08
2019-02-10T21:06:30.998Z,99394.13
2019-02-10T21:08:57.067Z,99402.18
2019-02-10T21:11:23.076Z,99404.81
2019-02-10T21:13:49.089Z,99421.92
2019-02-10T21:16:15.069Z,99427.69
2019-02-10T21:18:43.898Z,99439.02
2019-02-10T21:21:09.946Z,99443.78
2019-02-10T21:23:35.947Z,99447.23
2019-02-10T21:26:01.934Z,99466.66
2019-02-10T21:28:27.934Z,99470.45
2019-02-10T21:30:53.916Z,99474.86
2019-02-10T21:33:19.900Z,99498.73
2019-02-10T21:35:45.891Z,99510.58
2019-02-10T21:38:11.868Z,99505.78
2019-02-10T21:40:37.959Z,99526.02
2019-02-10T21:43:03.990Z,99523.08
2019-02-10T21:45:29.982Z,99526.36
2019-02-10T21:47:56.002Z,99545.28
2019-02-10T21:50:23.095Z,99544.13
2019-02-10T21:52:49.110Z,99566.49
2019-02-10T21:55:16.559Z,99574.88
2019-02-10T21:57:42.840Z,99584.59
2019-02-10T22:00:08.824Z,99607.61
2019-02-10T22:02:34.873Z,99605.13
2019-02-10T22:05:00.859Z,99620.45
2019-02-10T22:07:26.844Z,99631.12
2019-02-10T22:09:52.896Z,99627.83
2019-02-10T22:12:18.928Z,99636.72
2019-02-10T22:14:44.915Z,99649.88
2019-02-10T22:17:10.946Z,99650.03
2019-02-10T22:19:36.963Z,99661.05
2019-02-10T22:22:03.108Z,99671.90
2019-02-10T22:24:29.097Z,99680.28
2019-02-10T22:26:55.072Z,99688.33
2019-02-10T22:29:21.179Z,99699.03
2019-02-10T22:31:47.185Z,99703.13
2019-02-10T22:34:14.161Z,99705.27
2019-02-10T22:36:40.230Z,99718.25
2019-02-10T22:39:06.328Z,99721.38
2019-02-10T22:41:32.321Z,99728.45
2019-02-10T22:43:58.288Z,99752.80
2019-02-10T22:46:24.300Z,99742.75
2019-02-10T22:48:50.307Z,99749.81
2019-02-10T22:51:16.293Z,99762.30
2019-02-10T22:53:42.303Z,99777.45
2019-02-10T22:56:08.653Z,99778.91
2019-02-10T22:58:34.642Z,99788.27
2019-02-10T23:01:00.635Z,99789.75
2019-02-10T23:03:26.631Z,99799.45
2019-02-10T23:05:52.686Z,99807.81
2019-02-10T23:08:18.716Z,99812.61
2019-02-10T23:10:44.740Z,99814.74
2019-02-10T23:13:10.754Z,99828.39
2019-02-10T23:15:36.732Z,99843.50
2019-02-10T23:18:04.265Z,99847.91
2019-02-10T23:20:30.310Z,99854.31
2019-02-10T23:22:56.333Z,99861.73
2019-02-10T23:25:22.321Z,99867.00
2019-02-10T23:27:48.329Z,99887.55
2019-02-10T23:30:14.309Z,99888.33
2019-02-10T23:32:40.332Z,99903.30
2019-02-10T23:35:06.337Z,99903.30
2019-02-10T23:37:32.331Z,99914.80
2019-02-10T23:39:58.331Z,99922.34
2019-02-10T23:42:24.329Z,99929.27
2019-02-10T23:44:50.324Z,99935.17
2019-02-10T23:47:16.331Z,99949.31
2019-02-10T23:49:42.332Z,99951.27
2019-02-10T23:52:08.299Z,99961.97
2019-02-10T23:54:34.312Z,99971.67
2019-02-10T23:57:00.284Z,99977.21
2019-02-10T23:59:26.261Z,99984.14
